Terminal Aerodrome Forecast
Issued by NWS Topeka, KS

Home | Current Version | Previous Version | Text Only | Print | Product List | Glossary Off
Versions: 1 2 3 4 5 6 7 8 9 10 11 12 13 14 15

000
FTUS43 KTOP 181112 AAC
TAFTOP
TAF AMD
KTOP 181112Z 1811/1906 11005KT 6SM BR BKN004 OVC040
     FM181400 12005KT 5SM -SHRA VCTS BKN009CB OVC040
     FM181500 15008KT 5SM -SHRA VCTS OVC015CB
     FM181800 16009KT P6SM BKN035=

USA.gov is the U.S. government's official web portal to all federal, state and local government web resources and services.